Pamplin, Virginia
Current Conditions -  °F | °C
As of 4:55 AM on Wednesday 26 Nov 2014 (Local Time) from KFVX Reporting Station
Moderate Rain Moderate Rain  
Wind Chill: 43°   Ceiling: 700
Heat Index: 47°   Visibility: 5mi
Dew Point: 47°   Wind: 8mph
Humidity: 100%   Direction: 20°NNE
Pressure: 30.02"   Gusts: NA
Location:  37.26°N, 78.68°W
Report Text: KFVX 260955Z AUTO 02007KT 5SM RA OVC007 08/08 A3002 RMK AO2 P0005 T00810081
Loading
Personal Weather Stations






























Interactive Weather Map New forecast layout! Learn more

10-Day Weather Forecast

Advertisements
Track Severe Weather on mobile